createdAt,value
2022-09-26T00:00:00.230Z,0
2022-09-26T00:01:39.984Z,0
2022-09-26T00:03:19.770Z,0
2022-09-26T00:04:59.553Z,0
2022-09-26T00:06:39.299Z,0
2022-09-26T00:08:19.061Z,0
2022-09-26T00:09:58.839Z,0
2022-09-26T00:11:38.598Z,0
2022-09-26T00:13:18.401Z,0
2022-09-26T00:14:58.132Z,0
2022-09-26T00:16:37.906Z,0
2022-09-26T00:18:17.675Z,0
2022-09-26T00:19:57.432Z,0
2022-09-26T00:21:37.241Z,0
2022-09-26T00:23:17.005Z,0
2022-09-26T00:24:56.731Z,0
2022-09-26T00:26:36.541Z,0
2022-09-26T00:28:16.337Z,0
2022-09-26T00:29:56.078Z,0
2022-09-26T00:31:35.851Z,0
2022-09-26T00:33:15.576Z,0
2022-09-26T00:34:55.400Z,0
2022-09-26T00:36:35.142Z,0
2022-09-26T00:38:14.875Z,0
2022-09-26T00:41:34.416Z,0
2022-09-26T00:43:14.172Z,0
2022-09-26T00:44:53.971Z,0
2022-09-26T00:46:33.719Z,0
2022-09-26T00:48:13.491Z,0
2022-09-26T00:49:53.277Z,0
2022-09-26T00:51:33.014Z,0
2022-09-26T00:53:12.824Z,0
2022-09-26T00:54:52.557Z,0
2022-09-26T00:56:32.342Z,0
2022-09-26T00:58:12.087Z,0
2022-09-26T00:59:51.845Z,0
2022-09-26T01:01:31.625Z,0
2022-09-26T01:03:11.380Z,0
2022-09-26T01:04:51.183Z,0
2022-09-26T01:06:30.924Z,0
2022-09-26T01:08:10.734Z,0
2022-09-26T01:09:50.463Z,0
2022-09-26T01:11:30.221Z,0
2022-09-26T01:13:09.990Z,0
2022-09-26T01:14:49.757Z,0
2022-09-26T01:16:29.526Z,0
2022-09-26T01:18:09.297Z,0
2022-09-26T01:19:49.121Z,0
2022-09-26T01:21:28.869Z,0
2022-09-26T01:23:08.619Z,0
2022-09-26T01:24:48.400Z,0
2022-09-26T01:26:28.134Z,0
2022-09-26T01:28:07.916Z,0
2022-09-26T01:29:47.674Z,0
2022-09-26T01:31:27.433Z,0
2022-09-26T01:34:47.017Z,0
2022-09-26T01:36:26.754Z,0
2022-09-26T01:38:06.515Z,0
2022-09-26T01:39:46.274Z,0
2022-09-26T01:41:26.040Z,0
2022-09-26T01:43:05.819Z,0
2022-09-26T01:44:45.570Z,0
2022-09-26T01:46:25.362Z,0
2022-09-26T01:48:05.114Z,0
2022-09-26T01:49:44.871Z,0
2022-09-26T01:51:24.662Z,0
2022-09-26T01:53:04.416Z,0
2022-09-26T01:54:44.224Z,0
2022-09-26T01:56:23.943Z,0
2022-09-26T01:58:03.698Z,0
2022-09-26T02:01:23.244Z,0
2022-09-26T02:03:03.029Z,0
2022-09-26T02:04:42.776Z,0
2022-09-26T02:06:22.563Z,0
2022-09-26T02:08:02.328Z,0
2022-09-26T02:09:42.096Z,0
2022-09-26T02:11:21.842Z,0
2022-09-26T02:13:01.636Z,0
2022-09-26T02:14:41.413Z,0
2022-09-26T02:16:21.156Z,0
2022-09-26T02:18:00.929Z,0
2022-09-26T02:19:40.681Z,0
2022-09-26T02:21:20.469Z,0
2022-09-26T02:23:00.220Z,0
2022-09-26T02:24:39.990Z,0
2022-09-26T02:26:19.786Z,0
2022-09-26T02:27:59.527Z,0
2022-09-26T02:29:39.293Z,0
2022-09-26T02:31:19.056Z,0
2022-09-26T02:32:58.841Z,0
2022-09-26T02:34:38.594Z,0
2022-09-26T02:36:18.370Z,0
2022-09-26T02:37:58.134Z,0
2022-09-26T02:39:37.907Z,0
2022-09-26T02:41:17.692Z,0
2022-09-26T02:42:57.440Z,0
2022-09-26T02:44:37.199Z,0
2022-09-26T02:46:16.970Z,0
2022-09-26T02:47:56.731Z,0
2022-09-26T02:49:36.496Z,0
2022-09-26T02:51:16.264Z,0
2022-09-26T02:52:56.035Z,0
2022-09-26T02:54:35.803Z,0
2022-09-26T02:56:15.564Z,0
2022-09-26T02:57:55.332Z,0
2022-09-26T02:59:35.116Z,0
2022-09-26T03:01:14.880Z,0
2022-09-26T03:02:54.686Z,0
2022-09-26T03:04:34.418Z,0
2022-09-26T03:06:14.205Z,0
2022-09-26T03:07:53.956Z,0
2022-09-26T03:09:33.709Z,0
2022-09-26T03:11:13.469Z,0
2022-09-26T03:12:53.235Z,0
2022-09-26T03:14:33.250Z,0
2022-09-26T03:16:12.791Z,0
2022-09-26T03:17:52.563Z,0
2022-09-26T03:19:32.321Z,0
2022-09-26T03:21:12.086Z,0
2022-09-26T03:22:51.859Z,0
2022-09-26T03:24:31.609Z,0
2022-09-26T03:26:11.386Z,0
2022-09-26T03:27:51.148Z,0
2022-09-26T03:29:30.981Z,0
2022-09-26T03:31:10.792Z,0
2022-09-26T03:32:50.472Z,0
2022-09-26T03:34:30.211Z,0
2022-09-26T03:36:09.998Z,0
2022-09-26T03:37:49.762Z,0
2022-09-26T03:39:29.533Z,0
2022-09-26T03:41:09.295Z,0
2022-09-26T03:42:49.051Z,0
2022-09-26T03:44:28.824Z,0
2022-09-26T03:46:08.603Z,0
2022-09-26T03:47:48.357Z,0
2022-09-26T03:49:28.122Z,0
2022-09-26T03:51:07.912Z,0
2022-09-26T03:52:47.660Z,0
2022-09-26T03:54:27.438Z,0
2022-09-26T03:56:07.211Z,0
2022-09-26T03:57:46.951Z,0
2022-09-26T03:59:26.710Z,0
2022-09-26T04:01:06.489Z,0
2022-09-26T04:02:46.257Z,0
2022-09-26T04:04:26.008Z,0
2022-09-26T04:06:05.776Z,0
2022-09-26T04:07:45.542Z,0
2022-09-26T04:09:25.357Z,0
2022-09-26T04:11:05.072Z,0
2022-09-26T04:12:44.831Z,0
2022-09-26T04:14:24.612Z,0
2022-09-26T04:16:04.362Z,0
2022-09-26T04:17:44.115Z,0
2022-09-26T04:19:23.900Z,0
2022-09-26T04:21:03.661Z,0
2022-09-26T04:22:43.417Z,0
2022-09-26T04:24:23.194Z,0
2022-09-26T04:26:02.950Z,0
2022-09-26T04:27:42.715Z,0
2022-09-26T04:29:22.464Z,0
2022-09-26T04:31:02.236Z,0
2022-09-26T04:32:42.027Z,0
2022-09-26T04:34:21.771Z,0
2022-09-26T04:36:01.607Z,0
2022-09-26T04:37:41.315Z,0
2022-09-26T04:39:21.089Z,0
2022-09-26T04:41:00.827Z,0
2022-09-26T04:42:40.587Z,0
2022-09-26T04:44:20.362Z,0
2022-09-26T04:46:00.140Z,0
2022-09-26T04:47:39.883Z,0
2022-09-26T04:49:19.643Z,0
2022-09-26T04:50:59.422Z,0
2022-09-26T04:52:39.179Z,0
2022-09-26T04:54:18.944Z,0
2022-09-26T04:55:58.698Z,0
2022-09-26T04:57:38.513Z,0
2022-09-26T04:59:18.244Z,0
2022-09-26T05:00:57.988Z,0
2022-09-26T05:02:37.876Z,0
2022-09-26T05:05:57.417Z,0
2022-09-26T05:07:37.071Z,0
2022-09-26T05:10:56.682Z,0.03
2022-09-26T05:12:36.356Z,0.05
2022-09-26T05:14:16.121Z,0.06
2022-09-26T05:15:55.879Z,0.07
2022-09-26T05:17:35.649Z,0.08
2022-09-26T05:19:15.512Z,0.08
2022-09-26T05:20:55.192Z,0.1
2022-09-26T05:22:34.955Z,0.14
2022-09-26T05:24:14.725Z,0.16
2022-09-26T05:25:54.489Z,0.18
2022-09-26T05:27:34.266Z,0.22
2022-09-26T05:29:14.040Z,0.21
2022-09-26T05:30:53.817Z,0.26
2022-09-26T05:32:33.581Z,0.28
2022-09-26T05:34:13.353Z,0.25
2022-09-26T05:35:53.107Z,0.27
2022-09-26T05:37:32.938Z,0.28
2022-09-26T05:39:12.666Z,0.33
2022-09-26T05:40:52.427Z,0.5
2022-09-26T05:42:32.196Z,0.42
2022-09-26T05:44:11.978Z,0.38
2022-09-26T05:45:51.821Z,0.37
2022-09-26T05:47:31.515Z,0.43
2022-09-26T05:49:11.276Z,0.4
2022-09-26T05:50:51.047Z,0.42
2022-09-26T05:52:30.923Z,0.42
2022-09-26T05:54:10.596Z,0.42
2022-09-26T05:55:50.416Z,0.46
2022-09-26T05:59:09.914Z,0.45
2022-09-26T06:00:49.663Z,0.49
2022-09-26T06:02:29.467Z,0.5
2022-09-26T06:04:09.227Z,0.52
2022-09-26T06:05:48.993Z,0.55
2022-09-26T06:07:28.758Z,0.56
2022-09-26T06:09:08.519Z,0.6
2022-09-26T06:10:48.370Z,0.61
2022-09-26T06:12:28.067Z,0.66
2022-09-26T06:14:07.845Z,0.67
2022-09-26T06:15:47.655Z,0.66
2022-09-26T06:17:27.379Z,0.68
2022-09-26T06:19:07.147Z,0.7
2022-09-26T06:20:46.924Z,0.77
2022-09-26T06:22:26.679Z,0.9
2022-09-26T06:24:06.468Z,1.04
2022-09-26T06:25:46.234Z,1.1
2022-09-26T06:27:26.006Z,1.16
2022-09-26T06:29:05.780Z,1.22
2022-09-26T06:32:25.383Z,1.45
2022-09-26T06:34:05.108Z,1.33
2022-09-26T06:35:44.847Z,1.36
2022-09-26T06:37:24.626Z,1.46
2022-09-26T06:40:44.256Z,1.6
2022-09-26T06:42:23.930Z,3.46
2022-09-26T06:44:03.720Z,2.57
2022-09-26T06:45:43.461Z,2.34
2022-09-26T06:47:23.330Z,2.26
2022-09-26T06:49:03.048Z,2.18
2022-09-26T06:50:42.774Z,2.1
2022-09-26T06:52:22.555Z,2.08
2022-09-26T06:54:02.386Z,2.02
2022-09-26T06:55:42.095Z,2
2022-09-26T06:57:21.873Z,1.96
2022-09-26T06:59:01.767Z,1.94
2022-09-26T07:00:41.509Z,1.93
2022-09-26T07:02:21.176Z,1.89
2022-09-26T07:04:00.938Z,1.9
2022-09-26T07:05:40.815Z,1.8
2022-09-26T07:07:20.540Z,1.51
2022-09-26T07:09:00.246Z,1.56
2022-09-26T07:10:40.022Z,1.22
2022-09-26T07:12:19.830Z,1.92
2022-09-26T07:13:59.587Z,1.84
2022-09-26T07:15:39.354Z,1.83
2022-09-26T07:17:19.124Z,1.81
2022-09-26T07:20:38.703Z,1.79
2022-09-26T07:22:18.432Z,1.74
2022-09-26T07:23:58.230Z,1.74
2022-09-26T07:25:37.950Z,1.75
2022-09-26T07:27:17.731Z,1.76
2022-09-26T07:28:57.506Z,1.72
2022-09-26T07:30:37.272Z,1.71
2022-09-26T07:32:17.037Z,1.73
2022-09-26T07:33:56.816Z,1.72
2022-09-26T07:35:36.585Z,1.72
2022-09-26T07:37:16.447Z,1.68
2022-09-26T07:38:56.168Z,1.68
2022-09-26T07:40:35.955Z,1.67
2022-09-26T07:42:15.682Z,1.68
2022-09-26T07:43:55.441Z,1.68
2022-09-26T07:47:14.990Z,1.7
2022-09-26T07:48:54.754Z,1.67
2022-09-26T07:50:34.546Z,1.68
2022-09-26T07:52:14.286Z,1.65
2022-09-26T07:53:54.059Z,1.65
2022-09-26T07:55:33.837Z,1.69
2022-09-26T07:57:13.608Z,1.67
2022-09-26T07:58:53.368Z,1.62
2022-09-26T08:00:33.195Z,1.83
2022-09-26T08:02:12.915Z,1.64
2022-09-26T08:03:52.707Z,1.57
2022-09-26T08:05:32.439Z,1.63
2022-09-26T08:07:12.217Z,1.63
2022-09-26T08:08:52.010Z,1.65
2022-09-26T08:10:31.774Z,1.62
2022-09-26T08:12:11.540Z,1.61
2022-09-26T08:13:51.307Z,1.64
2022-09-26T08:15:31.063Z,1.61
2022-09-26T08:17:10.839Z,1.36
2022-09-26T08:18:50.617Z,1.62
2022-09-26T08:20:30.395Z,1.59
2022-09-26T08:22:10.154Z,1.58
2022-09-26T08:23:49.950Z,1.58
2022-09-26T08:25:29.697Z,1.59
2022-09-26T08:27:09.520Z,1.45
2022-09-26T08:28:49.233Z,1.57
2022-09-26T08:30:29.011Z,2.28
2022-09-26T08:32:08.767Z,1.56
2022-09-26T08:33:48.543Z,1.59
2022-09-26T08:35:28.335Z,1.35
2022-09-26T08:37:08.083Z,1.55
2022-09-26T08:38:47.854Z,1.55
2022-09-26T08:40:27.653Z,1.57
2022-09-26T08:42:07.390Z,1.57
2022-09-26T08:43:47.177Z,1.59
2022-09-26T08:45:26.949Z,1.49
2022-09-26T08:47:06.703Z,1.62
2022-09-26T08:48:46.547Z,1.53
2022-09-26T08:50:26.266Z,1.5
2022-09-26T08:52:06.014Z,1.55
2022-09-26T08:53:45.784Z,1.53
2022-09-26T08:55:25.583Z,1.55
2022-09-26T08:57:05.340Z,1.51
2022-09-26T08:58:45.105Z,1.5
2022-09-26T09:00:24.880Z,1.5
2022-09-26T09:02:04.653Z,1.51
2022-09-26T09:03:44.422Z,1.34
2022-09-26T09:05:24.201Z,1.54
2022-09-26T09:07:03.946Z,1.42
2022-09-26T09:08:43.806Z,1.5
2022-09-26T09:10:23.489Z,1.48
2022-09-26T09:12:03.293Z,1.48
2022-09-26T09:13:43.043Z,1.53
2022-09-26T09:15:22.823Z,1.49
2022-09-26T09:17:02.729Z,1.52
2022-09-26T09:18:42.353Z,1.48
2022-09-26T09:20:22.129Z,1.47
2022-09-26T09:22:01.933Z,1.43
2022-09-26T09:23:41.665Z,1.41
2022-09-26T09:27:01.188Z,1.46
2022-09-26T09:28:40.969Z,1.33
2022-09-26T09:30:20.756Z,1.42
2022-09-26T09:32:00.511Z,1.46
2022-09-26T09:33:40.289Z,1.41
2022-09-26T09:36:59.821Z,1.43
2022-09-26T09:38:39.595Z,1.4
2022-09-26T09:40:19.368Z,1.39
2022-09-26T09:41:59.130Z,1.36
2022-09-26T09:43:38.912Z,1.44
2022-09-26T09:45:18.681Z,1.38
2022-09-26T09:46:58.457Z,1.49
2022-09-26T09:48:38.218Z,1.36
2022-09-26T09:50:17.995Z,1.35
2022-09-26T09:51:57.761Z,1.41
2022-09-26T09:53:37.537Z,1.47
2022-09-26T09:55:17.296Z,1.32
2022-09-26T09:56:57.064Z,1.35
2022-09-26T09:58:36.827Z,1.32
2022-09-26T10:00:16.622Z,1.49
2022-09-26T10:01:56.385Z,1.47
2022-09-26T10:03:36.140Z,1.36
2022-09-26T10:05:15.910Z,1.41
2022-09-26T10:06:55.690Z,1.39
2022-09-26T10:08:35.457Z,1.4
2022-09-26T10:10:15.281Z,1.63
2022-09-26T10:11:54.995Z,1.4
2022-09-26T10:13:34.780Z,0
2022-09-26T10:15:14.539Z,0
2022-09-26T10:16:54.312Z,0
2022-09-26T10:18:34.076Z,0
2022-09-26T10:20:13.934Z,0
2022-09-26T10:21:53.609Z,0
2022-09-26T10:23:33.382Z,0
2022-09-26T10:25:13.147Z,0
2022-09-26T10:26:52.915Z,0.2
2022-09-26T10:28:32.687Z,0.31
2022-09-26T10:30:12.517Z,0.3
2022-09-26T10:31:52.238Z,0.28
2022-09-26T10:33:32.000Z,0.31
2022-09-26T10:35:11.769Z,0.29
2022-09-26T10:36:51.577Z,0.29
2022-09-26T10:38:31.305Z,0.31
2022-09-26T10:40:11.079Z,0.2
2022-09-26T10:41:50.862Z,0.32
2022-09-26T10:43:30.625Z,0.32
2022-09-26T10:45:10.396Z,0.32
2022-09-26T10:46:50.175Z,0.3
2022-09-26T10:48:29.945Z,0.42
2022-09-26T10:50:09.696Z,0.41
2022-09-26T10:51:49.470Z,0.37
2022-09-26T10:53:29.254Z,0.3
2022-09-26T10:55:09.017Z,0.34
2022-09-26T10:56:48.917Z,0.36
2022-09-26T10:58:28.586Z,0.35
2022-09-26T11:00:08.321Z,0.26
2022-09-26T11:01:48.092Z,0.38
2022-09-26T11:03:27.880Z,0.4
2022-09-26T11:05:07.636Z,0.22
2022-09-26T11:06:47.420Z,0.2
2022-09-26T11:08:27.225Z,0.29
2022-09-26T11:10:06.958Z,0.23
2022-09-26T11:11:46.735Z,0.25
2022-09-26T11:13:26.491Z,0.24
2022-09-26T11:15:06.269Z,0.32
2022-09-26T11:16:46.023Z,0.39
2022-09-26T11:18:25.798Z,0.27
2022-09-26T11:20:05.600Z,0.23
2022-09-26T11:21:45.467Z,0.23
2022-09-26T11:23:25.121Z,0.32
2022-09-26T11:25:04.878Z,0.38
2022-09-26T11:26:44.654Z,0.4
2022-09-26T11:28:24.430Z,0.36
2022-09-26T11:30:04.200Z,0.27
2022-09-26T11:31:43.967Z,0.26
2022-09-26T11:33:23.751Z,0.36
2022-09-26T11:35:03.515Z,0.27
2022-09-26T11:36:43.279Z,0.37
2022-09-26T11:38:23.048Z,0.31
2022-09-26T11:40:02.808Z,0.26
2022-09-26T11:43:22.359Z,0.34
2022-09-26T11:45:02.114Z,0.27
2022-09-26T11:46:41.900Z,0.24
2022-09-26T11:48:21.673Z,0.25
2022-09-26T11:50:01.443Z,0.26
2022-09-26T11:51:41.214Z,0.32
2022-09-26T11:53:21.002Z,0.34
2022-09-26T11:55:00.751Z,0.37
2022-09-26T11:56:40.521Z,0.4
2022-09-26T11:58:20.294Z,0.27
2022-09-26T12:00:00.135Z,0.42
2022-09-26T12:01:39.902Z,0.46
2022-09-26T12:03:19.599Z,0.42
2022-09-26T12:04:59.373Z,0.36
2022-09-26T12:06:39.212Z,0.26
2022-09-26T12:08:18.921Z,0.3
2022-09-26T12:09:58.686Z,0.29
2022-09-26T12:11:38.445Z,0.16
2022-09-26T12:13:18.297Z,0.26
2022-09-26T12:14:57.999Z,0.21
2022-09-26T12:18:17.534Z,0.31
2022-09-26T12:19:57.297Z,0.3
2022-09-26T12:21:37.057Z,0.21
2022-09-26T12:23:16.843Z,0.28
2022-09-26T12:24:56.616Z,0.37
2022-09-26T12:26:36.446Z,0.41
2022-09-26T12:28:16.146Z,0.25
2022-09-26T12:29:55.913Z,0.27
2022-09-26T12:31:35.701Z,0.2
2022-09-26T12:33:15.469Z,0.3
2022-09-26T12:34:55.249Z,0.29
2022-09-26T12:36:35.003Z,0.29
2022-09-26T12:38:14.761Z,0.36
2022-09-26T12:39:54.546Z,0.42
2022-09-26T12:41:34.323Z,0.3
2022-09-26T12:43:14.075Z,0.2
2022-09-26T12:44:53.858Z,0.41
2022-09-26T12:46:33.616Z,0.2
2022-09-26T12:48:13.385Z,0.34
2022-09-26T12:49:53.173Z,0.23
2022-09-26T12:51:32.938Z,0.39
2022-09-26T12:53:12.706Z,0.4
2022-09-26T12:54:52.477Z,0.41
2022-09-26T12:56:32.240Z,0.28
2022-09-26T12:58:12.017Z,0.21
2022-09-26T12:59:51.795Z,0.2
2022-09-26T13:01:31.550Z,0.41
2022-09-26T13:03:11.323Z,0.4
2022-09-26T13:04:51.093Z,0.31
2022-09-26T13:06:30.856Z,0.37
2022-09-26T13:09:50.407Z,0.24
2022-09-26T13:11:30.171Z,0.19
2022-09-26T13:13:09.952Z,0.17
2022-09-26T13:14:49.748Z,0.21
2022-09-26T13:16:29.495Z,0.18
2022-09-26T13:18:09.260Z,0.16
2022-09-26T13:19:49.027Z,0.34
2022-09-26T13:21:28.807Z,0.26
2022-09-26T13:23:08.572Z,0.26
2022-09-26T13:24:48.332Z,0.21
2022-09-26T13:26:28.193Z,0.22
2022-09-26T13:28:07.897Z,0.23
2022-09-26T13:29:47.659Z,0.35
2022-09-26T13:31:27.411Z,0.31
2022-09-26T13:33:07.207Z,0.25
2022-09-26T13:34:46.970Z,0.24
2022-09-26T13:36:26.745Z,0.26
2022-09-26T13:38:06.503Z,0.4
2022-09-26T13:39:46.319Z,0.39
2022-09-26T13:41:26.058Z,0.18
2022-09-26T13:43:05.825Z,0.36
2022-09-26T13:44:45.695Z,0.36
2022-09-26T13:46:25.406Z,0.18
2022-09-26T13:48:05.125Z,0.23
2022-09-26T13:49:44.891Z,0.43
2022-09-26T13:51:24.677Z,0.44
2022-09-26T13:53:04.420Z,0.36
2022-09-26T13:54:44.206Z,0.41
2022-09-26T13:56:23.976Z,0.3
2022-09-26T13:58:03.747Z,0.42
2022-09-26T13:59:43.515Z,0.36
2022-09-26T14:01:23.297Z,0.21
2022-09-26T14:03:03.044Z,0.38
2022-09-26T14:04:42.865Z,0.26
2022-09-26T14:06:22.612Z,0.33
2022-09-26T14:08:02.365Z,0.25
2022-09-26T14:09:42.136Z,0.23
2022-09-26T14:11:21.926Z,0.18
2022-09-26T14:13:01.684Z,0.38
2022-09-26T14:14:41.487Z,0.38
2022-09-26T14:16:21.210Z,0.28
2022-09-26T14:18:00.994Z,0.29
2022-09-26T14:19:40.809Z,0.17
2022-09-26T14:21:20.536Z,0.28
2022-09-26T14:23:00.441Z,0.39
2022-09-26T14:24:40.141Z,0.35
2022-09-26T14:26:19.935Z,0.29
2022-09-26T14:27:59.690Z,0.27
2022-09-26T14:29:39.373Z,0.18
2022-09-26T14:31:19.156Z,0.39
2022-09-26T14:32:58.929Z,0.25
2022-09-26T14:34:38.697Z,0.36
2022-09-26T14:36:18.464Z,0.41
2022-09-26T14:37:58.220Z,0.31
2022-09-26T14:39:38.011Z,0.16
2022-09-26T14:41:17.762Z,0.38
2022-09-26T14:42:57.599Z,0.36
2022-09-26T14:44:37.310Z,0.3
2022-09-26T14:46:17.146Z,0.11
2022-09-26T14:47:56.852Z,0.38
2022-09-26T14:49:36.628Z,0.4
2022-09-26T14:51:16.390Z,0.32
2022-09-26T14:52:56.285Z,0.28
2022-09-26T14:54:35.925Z,0.29
2022-09-26T14:56:15.699Z,0.18
2022-09-26T14:57:55.475Z,0.27
2022-09-26T14:59:35.241Z,0.21
2022-09-26T15:01:15.010Z,0.37
2022-09-26T15:02:54.770Z,0.38
2022-09-26T15:04:34.553Z,0.29
2022-09-26T15:06:14.399Z,0.35
2022-09-26T15:07:54.202Z,0.37
2022-09-26T15:09:33.857Z,0.41
2022-09-26T15:11:13.633Z,0.36
2022-09-26T15:12:53.389Z,0.35
2022-09-26T15:14:33.173Z,0.37
2022-09-26T15:16:12.975Z,0.26
2022-09-26T15:17:52.703Z,0.2
2022-09-26T15:19:32.487Z,0.19
2022-09-26T15:21:12.264Z,0.2
2022-09-26T15:22:52.019Z,0.35
2022-09-26T15:24:31.792Z,0.25
2022-09-26T15:26:11.570Z,0.38
2022-09-26T15:27:51.326Z,0.4
2022-09-26T15:29:31.101Z,0.41
2022-09-26T15:31:10.882Z,0.23
2022-09-26T15:32:50.639Z,0.33
2022-09-26T15:34:30.431Z,0.28
2022-09-26T15:36:10.176Z,0.22
2022-09-26T15:37:49.942Z,0.37
2022-09-26T15:39:29.720Z,0.25
2022-09-26T15:41:09.498Z,0.26
2022-09-26T15:42:49.293Z,0.27
2022-09-26T15:44:29.023Z,0.19
2022-09-26T15:46:08.818Z,0.4
2022-09-26T15:47:48.562Z,0.33
2022-09-26T15:49:28.341Z,0.22
2022-09-26T15:51:08.120Z,0.42
2022-09-26T15:52:47.924Z,0.3
2022-09-26T15:54:27.716Z,0.24
2022-09-26T15:56:07.422Z,0.38
2022-09-26T15:57:47.190Z,0.31
2022-09-26T15:59:26.973Z,0.29
2022-09-26T16:01:06.820Z,0.22
2022-09-26T16:02:46.689Z,0.3
2022-09-26T16:04:26.260Z,0.25
2022-09-26T16:06:06.042Z,0.33
2022-09-26T16:07:45.924Z,0.28
2022-09-26T16:09:25.626Z,0.26
2022-09-26T16:11:05.361Z,0.18
2022-09-26T16:12:45.133Z,0.18
2022-09-26T16:14:24.970Z,0.18
2022-09-26T16:16:04.654Z,0.32
2022-09-26T16:17:44.425Z,0.32
2022-09-26T16:19:24.210Z,0.28
2022-09-26T16:21:03.968Z,0.28
2022-09-26T16:22:43.740Z,0.31
2022-09-26T16:24:23.524Z,0.2
2022-09-26T16:26:03.281Z,0.37
2022-09-26T16:27:43.071Z,0.32
2022-09-26T16:29:22.830Z,0.11
2022-09-26T16:31:02.590Z,0.22
2022-09-26T16:32:42.364Z,0.09
2022-09-26T16:34:22.137Z,0.09
2022-09-26T16:36:01.908Z,0.13
2022-09-26T16:37:41.663Z,0.02
2022-09-26T16:39:21.435Z,0.07
2022-09-26T16:41:01.228Z,0.01
2022-09-26T16:42:40.969Z,0
2022-09-26T16:44:20.747Z,0
2022-09-26T16:46:00.513Z,0
2022-09-26T16:47:40.308Z,0
2022-09-26T16:49:20.050Z,0
2022-09-26T16:50:59.801Z,0
2022-09-26T16:52:39.583Z,0
2022-09-26T16:54:19.370Z,0
2022-09-26T16:55:59.112Z,0
2022-09-26T16:57:38.889Z,0
2022-09-26T16:59:18.646Z,0
2022-09-26T17:00:58.405Z,0
2022-09-26T17:02:38.232Z,0
2022-09-26T17:04:17.953Z,0
2022-09-26T17:05:57.711Z,0
2022-09-26T17:07:37.518Z,0
2022-09-26T17:09:17.321Z,0
2022-09-26T17:10:57.010Z,0
2022-09-26T17:12:36.794Z,0
2022-09-26T17:14:16.630Z,0
2022-09-26T17:15:56.342Z,0
2022-09-26T17:17:36.080Z,0
2022-09-26T17:19:15.928Z,0
2022-09-26T17:20:55.663Z,0
2022-09-26T17:22:35.376Z,0
2022-09-26T17:24:15.163Z,0
2022-09-26T17:25:54.922Z,0
2022-09-26T17:27:34.715Z,0
2022-09-26T17:29:14.497Z,0
2022-09-26T17:32:34.000Z,0
2022-09-26T17:34:13.925Z,0
2022-09-26T17:35:53.546Z,0
2022-09-26T17:37:33.297Z,0
2022-09-26T17:39:13.062Z,0
2022-09-26T17:40:52.855Z,0
2022-09-26T17:42:32.633Z,0
2022-09-26T17:44:12.361Z,0
2022-09-26T17:45:52.140Z,0
2022-09-26T17:47:31.895Z,0
2022-09-26T17:49:11.679Z,0
2022-09-26T17:50:51.430Z,0
2022-09-26T17:52:31.209Z,0
2022-09-26T17:54:10.981Z,0
2022-09-26T17:55:50.753Z,0
2022-09-26T17:57:30.509Z,0
2022-09-26T17:59:10.279Z,0
2022-09-26T18:00:50.128Z,0
2022-09-26T18:02:29.816Z,0
2022-09-26T18:04:09.584Z,0
2022-09-26T18:05:49.352Z,0
2022-09-26T18:07:29.113Z,0
2022-09-26T18:09:08.878Z,0
2022-09-26T18:10:48.642Z,0
2022-09-26T18:12:28.455Z,0
2022-09-26T18:14:08.207Z,0
2022-09-26T18:15:47.952Z,0
2022-09-26T18:17:27.751Z,0
2022-09-26T18:19:07.486Z,0
2022-09-26T18:20:47.244Z,0
2022-09-26T18:22:27.023Z,0
2022-09-26T18:24:06.855Z,0
2022-09-26T18:25:46.551Z,0
2022-09-26T18:27:26.319Z,0
2022-09-26T18:29:06.079Z,0
2022-09-26T18:30:45.878Z,0
2022-09-26T18:32:25.617Z,0
2022-09-26T18:34:05.395Z,0
2022-09-26T18:35:45.244Z,0
2022-09-26T18:37:24.936Z,0
2022-09-26T18:39:04.698Z,0
2022-09-26T18:40:44.465Z,0
2022-09-26T18:42:24.222Z,0
2022-09-26T18:44:03.995Z,0
2022-09-26T18:45:43.891Z,0
2022-09-26T18:47:23.569Z,0
2022-09-26T18:49:03.322Z,0
2022-09-26T18:50:43.069Z,0
2022-09-26T18:52:22.839Z,0
2022-09-26T18:54:02.634Z,0
2022-09-26T18:55:42.393Z,0
2022-09-26T18:57:22.135Z,0
2022-09-26T18:59:01.987Z,0
2022-09-26T19:00:41.711Z,0
2022-09-26T19:02:21.526Z,0
2022-09-26T19:04:01.206Z,0
2022-09-26T19:05:40.979Z,0
2022-09-26T19:07:20.802Z,0
2022-09-26T19:09:00.502Z,0
2022-09-26T19:10:40.264Z,0
2022-09-26T19:12:20.066Z,0
2022-09-26T19:13:59.811Z,0
2022-09-26T19:15:39.566Z,0
2022-09-26T19:17:19.378Z,0
2022-09-26T19:18:59.106Z,0
2022-09-26T19:20:38.874Z,0
2022-09-26T19:22:18.821Z,0
2022-09-26T19:23:58.563Z,0
2022-09-26T19:25:38.300Z,0
2022-09-26T19:27:18.102Z,0
2022-09-26T19:28:57.711Z,0
2022-09-26T19:30:37.508Z,0
2022-09-26T19:32:17.350Z,0
2022-09-26T19:35:36.836Z,0
2022-09-26T19:37:16.592Z,0
2022-09-26T19:38:56.367Z,0
2022-09-26T19:40:36.084Z,0
2022-09-26T19:42:15.956Z,0
2022-09-26T19:43:55.656Z,0
2022-09-26T19:45:35.411Z,0
2022-09-26T19:47:15.159Z,0
2022-09-26T19:48:54.967Z,0
2022-09-26T19:50:34.695Z,0
2022-09-26T19:52:14.487Z,0
2022-09-26T19:53:54.229Z,0
2022-09-26T19:55:34.049Z,0
2022-09-26T19:57:13.791Z,0
2022-09-26T19:58:53.630Z,0
2022-09-26T20:00:33.354Z,0
2022-09-26T20:02:13.057Z,0
2022-09-26T20:03:52.859Z,0
2022-09-26T20:05:32.590Z,0
2022-09-26T20:07:12.395Z,0
2022-09-26T20:08:52.148Z,0
2022-09-26T20:10:31.935Z,0
2022-09-26T20:12:11.670Z,0
2022-09-26T20:13:51.447Z,0
2022-09-26T20:15:31.210Z,0
2022-09-26T20:17:10.959Z,0
2022-09-26T20:18:50.736Z,0
2022-09-26T20:20:30.551Z,0
2022-09-26T20:22:10.295Z,0
2022-09-26T20:23:50.042Z,0
2022-09-26T20:25:29.804Z,0
2022-09-26T20:27:09.579Z,0
2022-09-26T20:28:49.332Z,0
2022-09-26T20:30:29.106Z,0
2022-09-26T20:33:48.642Z,0
2022-09-26T20:35:28.437Z,0
2022-09-26T20:38:47.953Z,0
2022-09-26T20:40:27.713Z,0
2022-09-26T20:42:07.483Z,0
2022-09-26T20:43:47.282Z,0
2022-09-26T20:45:27.023Z,0
2022-09-26T20:47:06.770Z,0
2022-09-26T20:48:46.555Z,0
2022-09-26T20:50:26.316Z,0
2022-09-26T20:52:06.105Z,0
2022-09-26T20:53:45.856Z,0
2022-09-26T20:55:25.612Z,0
2022-09-26T20:57:05.377Z,0
2022-09-26T20:58:45.169Z,0
2022-09-26T21:00:24.925Z,0
2022-09-26T21:02:04.677Z,0
2022-09-26T21:03:44.462Z,0
2022-09-26T21:05:24.212Z,0
2022-09-26T21:07:03.985Z,0
2022-09-26T21:08:43.776Z,0
2022-09-26T21:10:23.524Z,0
2022-09-26T21:12:03.293Z,0
2022-09-26T21:13:43.066Z,0
2022-09-26T21:15:22.823Z,0
2022-09-26T21:17:02.599Z,0
2022-09-26T21:18:42.408Z,0
2022-09-26T21:20:22.126Z,0
2022-09-26T21:22:01.902Z,0
2022-09-26T21:23:41.670Z,0
2022-09-26T21:25:21.427Z,0
2022-09-26T21:28:40.967Z,0
2022-09-26T21:30:20.748Z,0
2022-09-26T21:32:00.541Z,0
2022-09-26T21:33:40.296Z,0
2022-09-26T21:35:20.044Z,0
2022-09-26T21:38:39.569Z,0
2022-09-26T21:40:19.341Z,0
2022-09-26T21:41:59.104Z,0
2022-09-26T21:43:38.869Z,0
2022-09-26T21:45:18.659Z,0
2022-09-26T21:48:38.183Z,0
2022-09-26T21:50:17.956Z,0
2022-09-26T21:51:57.741Z,0
2022-09-26T21:53:37.466Z,0
2022-09-26T21:55:17.244Z,0
2022-09-26T21:56:57.042Z,0
2022-09-26T21:58:36.780Z,0
2022-09-26T22:00:16.540Z,0
2022-09-26T22:01:56.339Z,0
2022-09-26T22:03:36.084Z,0
2022-09-26T22:05:15.844Z,0
2022-09-26T22:08:35.431Z,0
2022-09-26T22:10:15.159Z,0
2022-09-26T22:11:54.909Z,0
2022-09-26T22:13:34.688Z,0
2022-09-26T22:15:14.466Z,0
2022-09-26T22:16:54.221Z,0
2022-09-26T22:18:33.989Z,0
2022-09-26T22:20:13.756Z,0
2022-09-26T22:21:53.528Z,0
2022-09-26T22:23:33.321Z,0
2022-09-26T22:25:13.068Z,0
2022-09-26T22:26:52.836Z,0
2022-09-26T22:28:32.589Z,0
2022-09-26T22:30:12.376Z,0
2022-09-26T22:31:52.139Z,0
2022-09-26T22:33:31.898Z,0
2022-09-26T22:35:11.660Z,0
2022-09-26T22:36:51.425Z,0
2022-09-26T22:38:31.189Z,0
2022-09-26T22:40:10.975Z,0
2022-09-26T22:41:50.739Z,0
2022-09-26T22:43:30.504Z,0
2022-09-26T22:45:10.271Z,0
2022-09-26T22:46:50.067Z,0
2022-09-26T22:48:29.807Z,0
2022-09-26T22:51:49.340Z,0
2022-09-26T22:53:29.107Z,0
2022-09-26T22:55:08.876Z,0
2022-09-26T22:56:48.641Z,0
2022-09-26T22:58:28.419Z,0
2022-09-26T23:00:08.186Z,0
2022-09-26T23:01:48.030Z,0
2022-09-26T23:03:27.748Z,0
2022-09-26T23:05:07.483Z,0
2022-09-26T23:06:47.264Z,0
2022-09-26T23:08:27.019Z,0
2022-09-26T23:10:06.783Z,0
2022-09-26T23:11:46.544Z,0
2022-09-26T23:13:26.333Z,0
2022-09-26T23:15:06.099Z,0
2022-09-26T23:16:45.902Z,0
2022-09-26T23:18:25.617Z,0
2022-09-26T23:20:05.393Z,0
2022-09-26T23:21:45.141Z,0
2022-09-26T23:23:24.928Z,0
2022-09-26T23:25:04.683Z,0
2022-09-26T23:26:44.444Z,0
2022-09-26T23:28:24.248Z,0
2022-09-26T23:30:04.001Z,0
2022-09-26T23:31:43.760Z,0
2022-09-26T23:33:23.521Z,0
2022-09-26T23:35:03.293Z,0
2022-09-26T23:36:43.076Z,0
2022-09-26T23:38:22.853Z,0
2022-09-26T23:40:02.600Z,0
2022-09-26T23:41:42.365Z,0
2022-09-26T23:43:22.122Z,0
2022-09-26T23:45:01.899Z,0
2022-09-26T23:46:41.652Z,0
2022-09-26T23:48:21.432Z,0
2022-09-26T23:50:01.191Z,0
2022-09-26T23:51:40.961Z,0
2022-09-26T23:53:20.725Z,0
2022-09-26T23:55:00.500Z,0
2022-09-26T23:56:40.275Z,0
2022-09-26T23:58:20.021Z,0
2022-09-26T23:59:59.808Z,0
